Time;durP1;ratioP1;P1;durP2;ratioP2;P2;SDS_P1;SDS_P2;PMS_P1;PMS_P2;Temp;Humidity;BMP_temperature;BMP_pressure;BME280_temperature;BME280_humidity;BME280_pressure;Samples;Min_cycle;Max_cycle;Signal;HPM_P1;HPM_P2
2023/08/27 00:01:27;;;;;;;11.73;8.17;;;;;;;;;;5032871;28;20552;-74
2023/08/27 00:04:31;;;;;;;14.57;8.00;;;;;;;;;;5020696;28;20590;-77
2023/08/27 00:07:36;;;;;;;11.10;7.40;;;;;;;;;;5032872;28;20199;-77
2023/08/27 00:10:40;;;;;;;12.10;7.00;;;;;;;;;;5033385;28;20684;-77
2023/08/27 00:13:44;;;;;;;9.00;7.00;;;;;;;;;;5020892;28;20217;-76
2023/08/27 00:16:50;;;;;;;9.57;7.27;;;;;;;;;;5025213;28;20525;-76
2023/08/27 00:19:54;;;;;;;9.33;7.83;;;;;;;;;;5036996;28;20525;-77
2023/08/27 00:22:58;;;;;;;8.70;6.87;;;;;;;;;;5036784;28;20216;-77
2023/08/27 00:26:02;;;;;;;9.70;7.10;;;;;;;;;;5037148;28;20185;-76
2023/08/27 00:29:06;;;;;;;11.30;6.53;;;;;;;;;;5024792;28;20196;-77
2023/08/27 00:32:10;;;;;;;10.33;6.37;;;;;;;;;;5025043;28;20224;-77
2023/08/27 00:35:15;;;;;;;8.33;5.67;;;;;;;;;;5024500;28;20568;-77
2023/08/27 00:38:18;;;;;;;8.73;6.00;;;;;;;;;;5013536;28;20526;-77
2023/08/27 00:41:23;;;;;;;8.90;5.87;;;;;;;;;;5024660;28;20605;-77
2023/08/27 00:44:27;;;;;;;8.80;5.90;;;;;;;;;;5024707;28;20684;-77
2023/08/27 00:47:35;;;;;;;12.93;5.73;;;;;;;;;;5024587;28;20197;-77
2023/08/27 00:50:39;;;;;;;8.37;4.93;;;;;;;;;;5024774;28;20173;-77
2023/08/27 00:53:43;;;;;;;11.23;5.77;;;;;;;;;;5013032;28;20209;-77
2023/08/27 00:56:48;;;;;;;9.57;5.93;;;;;;;;;;5024463;28;20180;-77
2023/08/27 00:59:55;;;;;;;7.67;5.83;;;;;;;;;;5024163;28;20181;-77
2023/08/27 01:02:59;;;;;;;7.10;5.60;;;;;;;;;;5012858;28;20687;-77
2023/08/27 01:06:04;;;;;;;12.40;4.87;;;;;;;;;;5012677;28;20181;-77
2023/08/27 01:09:29;;;;;;;7.77;4.43;;;;;;;;;;5023857;28;20191;-77
2023/08/27 01:13:18;;;;;;;7.23;5.10;;;;;;;;;;5023734;28;20217;-77
2023/08/27 01:16:26;;;;;;;7.13;4.63;;;;;;;;;;5021533;28;20205;-77
2023/08/27 01:19:31;;;;;;;5.97;4.17;;;;;;;;;;5023683;28;20177;-77
2023/08/27 01:22:35;;;;;;;6.93;4.10;;;;;;;;;;5023649;28;20688;-77
2023/08/27 01:25:45;;;;;;;5.67;3.83;;;;;;;;;;5023861;28;20196;-77
2023/08/27 01:29:01;;;;;;;6.00;4.20;;;;;;;;;;5023923;28;20173;-77
2023/08/27 01:32:14;;;;;;;5.77;4.30;;;;;;;;;;5012476;28;20216;-77
2023/08/27 01:35:18;;;;;;;6.03;3.17;;;;;;;;;;5023472;28;20209;-77
2023/08/27 01:38:22;;;;;;;8.17;3.30;;;;;;;;;;5034654;28;20185;-77
2023/08/27 01:41:27;;;;;;;5.70;3.40;;;;;;;;;;5012400;28;20177;-77
2023/08/27 01:44:31;;;;;;;5.60;3.63;;;;;;;;;;5035647;28;20213;-77
2023/08/27 01:47:36;;;;;;;5.53;3.63;;;;;;;;;;5011877;28;20522;-77
2023/08/27 01:50:40;;;;;;;5.23;3.10;;;;;;;;;;5011969;28;20177;-77
2023/08/27 01:53:44;;;;;;;4.13;3.00;;;;;;;;;;5023514;28;20209;-77
2023/08/27 01:56:49;;;;;;;5.47;2.97;;;;;;;;;;5022988;28;20177;-77
2023/08/27 01:59:53;;;;;;;3.37;3.07;;;;;;;;;;5011930;28;20181;-77
2023/08/27 02:02:57;;;;;;;5.33;3.70;;;;;;;;;;5022633;28;20221;-76
2023/08/27 02:06:03;;;;;;;5.13;2.73;;;;;;;;;;5022819;28;20196;-77
2023/08/27 02:09:07;;;;;;;4.27;3.33;;;;;;;;;;5023038;28;20185;-77
2023/08/27 02:12:11;;;;;;;6.40;3.00;;;;;;;;;;5022599;28;20220;-77
2023/08/27 02:15:15;;;;;;;4.10;3.30;;;;;;;;;;5022816;28;20181;-77
2023/08/27 02:18:20;;;;;;;6.97;3.47;;;;;;;;;;5022879;28;20189;-76
2023/08/27 02:21:24;;;;;;;6.50;3.60;;;;;;;;;;5022765;28;20185;-76
2023/08/27 02:24:28;;;;;;;4.17;3.40;;;;;;;;;;5023200;28;20667;-77
2023/08/27 02:27:32;;;;;;;5.77;3.23;;;;;;;;;;5022590;28;20176;-77
2023/08/27 02:30:36;;;;;;;4.50;3.23;;;;;;;;;;5011632;28;20525;-76
2023/08/27 02:33:41;;;;;;;3.60;3.17;;;;;;;;;;5011154;28;20545;-76
2023/08/27 02:36:44;;;;;;;6.90;3.13;;;;;;;;;;5034663;28;20200;-75
2023/08/27 02:39:49;;;;;;;3.60;3.30;;;;;;;;;;5021444;28;20196;-75
2023/08/27 02:42:53;;;;;;;6.07;3.20;;;;;;;;;;5022007;28;20216;-75
2023/08/27 02:45:57;;;;;;;5.73;3.57;;;;;;;;;;5022365;28;20177;-76
2023/08/27 02:49:02;;;;;;;6.17;3.10;;;;;;;;;;5022664;28;20185;-76
2023/08/27 02:52:06;;;;;;;7.37;3.77;;;;;;;;;;5022144;28;20561;-76
2023/08/27 02:55:10;;;;;;;5.00;3.20;;;;;;;;;;5010708;28;20176;-76
2023/08/27 02:58:14;;;;;;;6.67;3.50;;;;;;;;;;4999408;28;20181;-76
2023/08/27 03:01:20;;;;;;;5.63;3.40;;;;;;;;;;5022049;28;20525;-76
2023/08/27 03:04:26;;;;;;;6.40;3.37;;;;;;;;;;5034316;28;20224;-76
2023/08/27 03:07:30;;;;;;;7.90;4.17;;;;;;;;;;5022031;28;20177;-76
2023/08/27 03:10:34;;;;;;;12.67;4.30;;;;;;;;;;5021630;28;20196;-76
2023/08/27 03:13:38;;;;;;;7.83;4.23;;;;;;;;;;5010380;28;20220;-76
2023/08/27 03:16:42;;;;;;;7.20;3.80;;;;;;;;;;5021452;28;20185;-76
2023/08/27 03:19:46;;;;;;;5.00;3.87;;;;;;;;;;5021766;28;20636;-76
2023/08/27 03:22:50;;;;;;;4.23;3.80;;;;;;;;;;5021535;28;20220;-76
2023/08/27 03:25:54;;;;;;;6.67;4.30;;;;;;;;;;5021369;28;20177;-76
2023/08/27 03:28:59;;;;;;;4.50;3.90;;;;;;;;;;5021355;28;20526;-76
2023/08/27 03:32:03;;;;;;;4.53;3.80;;;;;;;;;;5033931;28;20212;-75
2023/08/27 03:35:08;;;;;;;6.20;3.63;;;;;;;;;;5033300;28;20204;-76
2023/08/27 03:38:12;;;;;;;4.87;3.87;;;;;;;;;;5021982;28;20545;-76
2023/08/27 03:41:16;;;;;;;7.10;3.77;;;;;;;;;;5010004;28;20193;-76
2023/08/27 03:44:20;;;;;;;6.07;3.83;;;;;;;;;;5021340;28;20213;-76
2023/08/27 03:47:25;;;;;;;5.80;3.23;;;;;;;;;;5010124;28;20180;-76
2023/08/27 03:50:29;;;;;;;6.47;3.43;;;;;;;;;;5021130;28;20173;-76
2023/08/27 03:53:33;;;;;;;3.73;3.00;;;;;;;;;;5021166;28;20220;-75
2023/08/27 03:56:37;;;;;;;7.00;3.50;;;;;;;;;;5021200;28;20196;-76
2023/08/27 03:59:41;;;;;;;5.53;3.43;;;;;;;;;;5021273;28;20196;-76
2023/08/27 04:02:46;;;;;;;5.73;4.13;;;;;;;;;;5033140;28;20216;-76
2023/08/27 04:05:50;;;;;;;4.50;3.40;;;;;;;;;;5020785;28;20220;-76
2023/08/27 04:08:55;;;;;;;6.40;3.17;;;;;;;;;;4998871;28;20181;-76
2023/08/27 04:11:59;;;;;;;5.80;4.20;;;;;;;;;;5020953;28;20216;-76
2023/08/27 04:15:03;;;;;;;4.90;3.40;;;;;;;;;;5020998;28;20196;-76
2023/08/27 04:18:08;;;;;;;7.03;3.77;;;;;;;;;;5020803;28;20196;-76
2023/08/27 04:21:12;;;;;;;5.47;3.80;;;;;;;;;;5020771;28;20185;-76
2023/08/27 04:24:16;;;;;;;4.70;3.70;;;;;;;;;;5020815;28;20208;-76
2023/08/27 04:27:20;;;;;;;3.87;3.43;;;;;;;;;;5009698;28;20184;-76
2023/08/27 04:30:25;;;;;;;4.47;3.67;;;;;;;;;;5009465;28;20185;-76
2023/08/27 04:33:29;;;;;;;4.73;3.33;;;;;;;;;;5020569;28;20216;-76
2023/08/27 04:36:33;;;;;;;8.50;4.53;;;;;;;;;;5033028;28;20177;-76
2023/08/27 04:39:36;;;;;;;5.50;4.00;;;;;;;;;;5020677;28;20633;-76
2023/08/27 04:42:41;;;;;;;3.93;3.43;;;;;;;;;;5020880;28;20212;-76
2023/08/27 04:45:46;;;;;;;6.87;4.07;;;;;;;;;;5020486;28;20208;-76
2023/08/27 04:48:50;;;;;;;6.33;3.77;;;;;;;;;;5020481;28;20192;-76
2023/08/27 04:51:54;;;;;;;6.03;3.43;;;;;;;;;;5020389;28;20220;-75
2023/08/27 04:54:58;;;;;;;3.43;2.87;;;;;;;;;;5020430;28;20189;-75
2023/08/27 04:58:04;;;;;;;4.53;3.43;;;;;;;;;;5020993;28;20181;-74
2023/08/27 05:01:09;;;;;;;3.33;3.03;;;;;;;;;;5020673;28;20256;-75
2023/08/27 05:04:14;;;;;;;4.13;3.07;;;;;;;;;;5024518;28;20216;-75
2023/08/27 05:07:18;;;;;;;3.53;3.00;;;;;;;;;;5024305;28;20185;-75
2023/08/27 05:10:23;;;;;;;3.70;3.07;;;;;;;;;;5023824;28;20185;-75
2023/08/27 05:13:27;;;;;;;3.20;2.90;;;;;;;;;;5023715;28;20220;-75
2023/08/27 05:16:34;;;;;;;4.80;3.30;;;;;;;;;;5012675;28;20188;-75
2023/08/27 05:19:38;;;;;;;5.07;3.30;;;;;;;;;;5023803;28;20177;-74
2023/08/27 05:22:44;;;;;;;5.00;3.47;;;;;;;;;;5034950;28;20572;-75
2023/08/27 05:25:48;;;;;;;4.67;3.30;;;;;;;;;;5012556;28;20205;-75
2023/08/27 05:28:52;;;;;;;5.10;3.83;;;;;;;;;;5023780;28;20192;-75
2023/08/27 05:31:56;;;;;;;5.33;3.20;;;;;;;;;;5012218;28;20216;-75
2023/08/27 05:35:01;;;;;;;4.60;3.73;;;;;;;;;;5023513;28;20200;-76
2023/08/27 05:38:05;;;;;;;4.23;3.50;;;;;;;;;;5023336;28;20197;-75
2023/08/27 05:41:09;;;;;;;4.23;3.07;;;;;;;;;;5023400;28;20177;-75
2023/08/27 05:44:13;;;;;;;3.77;3.33;;;;;;;;;;5023769;28;20180;-76
2023/08/27 05:47:19;;;;;;;3.40;3.03;;;;;;;;;;5023207;28;20177;-75
2023/08/27 05:50:23;;;;;;;4.67;3.40;;;;;;;;;;5012460;28;20624;-74
2023/08/27 05:53:28;;;;;;;4.43;3.10;;;;;;;;;;5023315;28;20212;-75
2023/08/27 05:56:34;;;;;;;5.40;3.03;;;;;;;;;;5023424;28;20180;-74
2023/08/27 05:59:38;;;;;;;4.40;2.90;;;;;;;;;;5035029;28;20197;-74
2023/08/27 06:02:42;;;;;;;3.43;2.90;;;;;;;;;;5022766;28;20216;-74
2023/08/27 06:05:46;;;;;;;2.60;2.40;;;;;;;;;;5000503;28;20220;-74
2023/08/27 06:08:50;;;;;;;3.67;2.47;;;;;;;;;;5022763;28;20644;-74
2023/08/27 06:11:54;;;;;;;5.50;2.70;;;;;;;;;;5022814;28;20569;-75
2023/08/27 06:14:59;;;;;;;7.07;2.53;;;;;;;;;;5022673;28;20172;-75
2023/08/27 06:18:04;;;;;;;3.67;2.40;;;;;;;;;;5011383;28;20181;-75
2023/08/27 06:21:08;;;;;;;3.27;2.10;;;;;;;;;;5022418;28;20181;-75
2023/08/27 06:24:12;;;;;;;3.27;2.20;;;;;;;;;;5035040;28;20632;-75
2023/08/27 06:27:16;;;;;;;5.40;2.20;;;;;;;;;;5022574;28;20189;-75
2023/08/27 06:30:20;;;;;;;3.13;2.03;;;;;;;;;;5022693;28;20176;-74
2023/08/27 06:33:24;;;;;;;4.60;2.27;;;;;;;;;;5022179;28;20220;-75
2023/08/27 06:36:29;;;;;;;3.50;2.03;;;;;;;;;;4999880;28;20169;-74
2023/08/27 06:39:33;;;;;;;2.40;2.10;;;;;;;;;;5022259;28;20181;-75
2023/08/27 06:42:37;;;;;;;4.33;2.20;;;;;;;;;;5010840;28;20216;-75
2023/08/27 06:45:44;;;;;;;2.13;1.80;;;;;;;;;;5010924;28;20212;-75
2023/08/27 06:48:49;;;;;;;3.03;1.80;;;;;;;;;;5034775;28;20181;-75
2023/08/27 06:51:53;;;;;;;3.47;2.10;;;;;;;;;;5022385;28;20216;-75
2023/08/27 06:54:58;;;;;;;2.57;2.00;;;;;;;;;;5022957;28;20648;-75
2023/08/27 06:58:02;;;;;;;3.27;1.60;;;;;;;;;;5034212;28;20196;-74
2023/08/27 07:01:08;;;;;;;1.80;1.70;;;;;;;;;;5021779;28;20177;-75
2023/08/27 07:04:13;;;;;;;2.87;1.90;;;;;;;;;;5021766;28;20177;-74
2023/08/27 07:07:17;;;;;;;4.37;2.00;;;;;;;;;;5021920;28;20177;-74
2023/08/27 07:10:22;;;;;;;3.13;1.90;;;;;;;;;;5021566;28;20173;-75
2023/08/27 07:13:26;;;;;;;4.13;1.70;;;;;;;;;;5033612;28;20216;-74
2023/08/27 07:16:30;;;;;;;3.10;2.20;;;;;;;;;;5021432;28;20176;-75
2023/08/27 07:19:35;;;;;;;2.30;1.60;;;;;;;;;;5033516;28;20208;-74
2023/08/27 07:22:39;;;;;;;3.67;2.00;;;;;;;;;;5010078;28;20683;-74
2023/08/27 07:25:43;;;;;;;3.20;2.00;;;;;;;;;;5021040;28;20208;-75
2023/08/27 07:28:47;;;;;;;2.63;2.03;;;;;;;;;;5021572;28;20632;-75
2023/08/27 07:31:51;;;;;;;1.90;1.70;;;;;;;;;;5021486;28;20561;-75
2023/08/27 07:34:55;;;;;;;3.60;2.03;;;;;;;;;;5009941;28;20204;-75
2023/08/27 07:38:01;;;;;;;2.43;1.80;;;;;;;;;;5021168;28;20537;-75
2023/08/27 07:41:06;;;;;;;3.60;2.20;;;;;;;;;;5009927;28;20640;-76
2023/08/27 07:44:10;;;;;;;2.27;2.07;;;;;;;;;;5033445;28;20173;-75
2023/08/27 07:47:15;;;;;;;2.83;2.00;;;;;;;;;;5021114;28;20181;-76
2023/08/27 07:50:20;;;;;;;3.57;1.90;;;;;;;;;;5021421;28;20185;-75
2023/08/27 07:53:25;;;;;;;4.70;2.00;;;;;;;;;;5009854;28;20216;-75
2023/08/27 07:56:29;;;;;;;2.27;1.87;;;;;;;;;;5021109;28;20629;-76
2023/08/27 07:59:35;;;;;;;2.43;1.87;;;;;;;;;;5020924;28;20172;-76
2023/08/27 08:02:40;;;;;;;2.20;1.77;;;;;;;;;;5020667;28;20213;-76
2023/08/27 08:05:44;;;;;;;1.80;1.47;;;;;;;;;;5020576;28;20216;-75
2023/08/27 08:08:48;;;;;;;3.13;1.93;;;;;;;;;;5033072;28;20200;-75
2023/08/27 08:11:52;;;;;;;1.80;1.60;;;;;;;;;;5020520;28;20220;-75
2023/08/27 08:14:56;;;;;;;2.47;1.60;;;;;;;;;;5032779;28;20181;-75
2023/08/27 08:18:02;;;;;;;2.93;1.57;;;;;;;;;;5032844;28;20177;-75
2023/08/27 08:21:06;;;;;;;2.60;1.77;;;;;;;;;;5032641;28;20177;-75
2023/08/27 08:24:10;;;;;;;2.53;1.63;;;;;;;;;;5020835;28;20514;-74
2023/08/27 08:27:14;;;;;;;4.33;1.73;;;;;;;;;;5009517;28;20378;-74
2023/08/27 08:30:18;;;;;;;2.60;1.73;;;;;;;;;;5009901;28;20181;-75
2023/08/27 08:33:22;;;;;;;3.30;1.70;;;;;;;;;;5032779;28;20220;-74
2023/08/27 08:36:27;;;;;;;1.77;1.50;;;;;;;;;;5033809;28;20197;-74
2023/08/27 08:39:31;;;;;;;1.70;1.30;;;;;;;;;;5036507;28;20180;-74
2023/08/27 08:42:49;;;;;;;3.30;1.60;;;;;;;;;;5036418;28;20215;-74
2023/08/27 08:46:03;;;;;;;1.90;1.70;;;;;;;;;;5036283;28;20225;-74
2023/08/27 08:49:15;;;;;;;2.30;1.50;;;;;;;;;;5024425;28;20185;-74
2023/08/27 08:52:24;;;;;;;3.70;1.63;;;;;;;;;;5036463;28;20216;-74
2023/08/27 08:55:31;;;;;;;2.37;1.40;;;;;;;;;;5036246;28;20193;-74
2023/08/27 08:58:37;;;;;;;1.50;1.40;;;;;;;;;;5024206;28;20656;-74
2023/08/27 09:01:42;;;;;;;3.00;1.40;;;;;;;;;;5036320;28;20517;-73
2023/08/27 09:04:46;;;;;;;2.90;1.73;;;;;;;;;;5024470;28;20176;-73
2023/08/27 09:07:50;;;;;;;3.30;1.80;;;;;;;;;;5024237;28;20530;-74
2023/08/27 09:10:54;;;;;;;3.23;1.83;;;;;;;;;;5023760;28;20189;-73
2023/08/27 09:13:59;;;;;;;2.27;1.63;;;;;;;;;;5023869;28;20177;-73
2023/08/27 09:17:05;;;;;;;3.07;2.00;;;;;;;;;;5035900;28;20169;-73
2023/08/27 09:20:09;;;;;;;3.17;1.80;;;;;;;;;;5035888;28;20513;-73
2023/08/27 09:23:14;;;;;;;2.17;1.67;;;;;;;;;;5034846;28;20220;-73
2023/08/27 09:26:20;;;;;;;2.27;1.70;;;;;;;;;;5035680;28;20208;-73
2023/08/27 09:29:26;;;;;;;2.40;1.60;;;;;;;;;;5035494;28;20656;-73
2023/08/27 09:32:30;;;;;;;3.47;1.90;;;;;;;;;;5035697;28;20216;-74
2023/08/27 09:35:39;;;;;;;2.30;1.80;;;;;;;;;;5023153;28;20208;-74
2023/08/27 09:38:43;;;;;;;3.67;2.20;;;;;;;;;;5035488;28;20513;-74
2023/08/27 09:41:48;;;;;;;3.13;2.03;;;;;;;;;;5035418;28;20213;-74
2023/08/27 09:44:52;;;;;;;2.60;1.80;;;;;;;;;;5023356;28;20201;-73
2023/08/27 09:47:58;;;;;;;2.10;1.80;;;;;;;;;;5035133;28;20189;-73
2023/08/27 09:51:05;;;;;;;2.57;1.90;;;;;;;;;;5001029;28;20177;-73
2023/08/27 09:54:17;;;;;;;2.57;2.07;;;;;;;;;;5023465;28;20204;-74
2023/08/27 09:57:22;;;;;;;2.77;2.30;;;;;;;;;;5034288;28;20178;-74
2023/08/27 10:00:27;;;;;;;4.97;2.47;;;;;;;;;;5035184;28;20185;-74
2023/08/27 10:03:31;;;;;;;2.30;2.10;;;;;;;;;;5035134;28;20238;-74
2023/08/27 10:06:39;;;;;;;3.40;2.03;;;;;;;;;;5022612;28;20217;-73
2023/08/27 10:09:51;;;;;;;2.43;2.20;;;;;;;;;;5022877;28;20522;-74
2023/08/27 10:12:56;;;;;;;2.70;2.17;;;;;;;;;;5022383;28;20217;-73
2023/08/27 10:16:01;;;;;;;2.47;1.40;;;;;;;;;;5034953;28;20621;-73
2023/08/27 10:19:04;;;;;;;3.17;2.00;;;;;;;;;;5034668;28;20538;-73
2023/08/27 10:22:10;;;;;;;1.90;1.60;;;;;;;;;;5034942;28;20216;-74
2023/08/27 10:25:18;;;;;;;2.33;1.80;;;;;;;;;;5034250;28;20636;-74
2023/08/27 10:28:23;;;;;;;4.27;2.00;;;;;;;;;;5034745;28;20173;-74
2023/08/27 10:31:27;;;;;;;3.70;1.83;;;;;;;;;;5034583;28;20185;-74
2023/08/27 10:34:31;;;;;;;2.60;1.90;;;;;;;;;;5034410;28;20200;-74
2023/08/27 10:37:39;;;;;;;2.07;1.70;;;;;;;;;;5034330;28;20173;-73
2023/08/27 10:40:44;;;;;;;2.40;1.80;;;;;;;;;;5034497;28;20189;-74
2023/08/27 10:43:48;;;;;;;2.63;2.10;;;;;;;;;;5034547;28;20221;-74
2023/08/27 10:47:14;;;;;;;2.60;1.80;;;;;;;;;;5022045;28;20204;-74
2023/08/27 10:50:21;;;;;;;4.63;1.70;;;;;;;;;;5033573;28;20181;-74
2023/08/27 10:53:38;;;;;;;3.50;1.83;;;;;;;;;;5034134;28;20220;-74
2023/08/27 10:56:47;;;;;;;3.90;1.97;;;;;;;;;;5064197;22;20236;-73
2023/08/27 11:00:10;;;;;;;2.97;2.00;;;;;;;;;;5052972;28;20180;-72
2023/08/27 11:03:14;;;;;;;2.73;2.00;;;;;;;;;;5054073;28;20551;-73
2023/08/27 11:06:20;;;;;;;3.10;2.17;;;;;;;;;;5053944;28;20212;-73
2023/08/27 11:09:25;;;;;;;4.33;2.20;;;;;;;;;;5052776;28;20180;-73
2023/08/27 11:12:35;;;;;;;4.33;2.00;;;;;;;;;;5053525;28;20215;-73
2023/08/27 11:15:39;;;;;;;2.43;1.93;;;;;;;;;;5053669;28;20184;-73
2023/08/27 11:18:48;;;;;;;2.07;1.60;;;;;;;;;;5053414;28;20196;-73
2023/08/27 11:22:06;;;;;;;2.17;1.97;;;;;;;;;;5052608;28;20215;-72
2023/08/27 11:25:11;;;;;;;3.23;2.27;;;;;;;;;;5053908;28;20528;-72
2023/08/27 11:28:15;;;;;;;3.20;1.40;;;;;;;;;;5054105;28;20172;-72
2023/08/27 11:31:20;;;;;;;2.70;1.80;;;;;;;;;;5053488;28;20196;-73
2023/08/27 11:34:24;;;;;;;2.73;1.87;;;;;;;;;;5052691;28;20184;-72
2023/08/27 11:37:29;;;;;;;3.97;1.80;;;;;;;;;;5053791;28;20172;-72
2023/08/27 11:40:34;;;;;;;2.13;1.77;;;;;;;;;;5053350;28;20184;-72
2023/08/27 11:43:38;;;;;;;2.33;1.90;;;;;;;;;;5053064;28;20220;-73
2023/08/27 11:46:43;;;;;;;4.23;2.00;;;;;;;;;;5053276;28;20212;-73
2023/08/27 11:49:51;;;;;;;2.70;1.80;;;;;;;;;;5053334;28;20528;-73
2023/08/27 11:52:56;;;;;;;2.27;1.90;;;;;;;;;;5053269;28;20215;-72
2023/08/27 11:56:00;;;;;;;1.93;1.53;;;;;;;;;;5053036;28;20544;-72
2023/08/27 11:59:05;;;;;;;2.37;1.87;;;;;;;;;;5041097;28;20631;-74
2023/08/27 12:02:11;;;;;;;2.80;1.77;;;;;;;;;;5052245;28;20212;-74
2023/08/27 12:05:16;;;;;;;2.50;1.90;;;;;;;;;;5053452;28;20180;-73
2023/08/27 12:08:20;;;;;;;4.03;1.80;;;;;;;;;;5053206;28;20212;-72
2023/08/27 12:11:27;;;;;;;3.63;1.73;;;;;;;;;;5054268;28;20195;-74
2023/08/27 12:14:31;;;;;;;2.57;1.60;;;;;;;;;;5056514;28;20176;-74
2023/08/27 12:17:37;;;;;;;2.27;1.53;;;;;;;;;;5056492;28;20176;-73
2023/08/27 12:20:41;;;;;;;2.30;1.40;;;;;;;;;;5056352;28;20180;-73
2023/08/27 12:23:51;;;;;;;2.47;1.93;;;;;;;;;;5056993;28;20215;-74
2023/08/27 12:27:00;;;;;;;3.20;1.40;;;;;;;;;;5056814;28;20216;-73
2023/08/27 12:30:06;;;;;;;3.10;1.63;;;;;;;;;;5056042;28;20188;-73
2023/08/27 12:33:10;;;;;;;2.40;1.70;;;;;;;;;;5056538;28;20219;-73
2023/08/27 12:36:15;;;;;;;3.00;1.67;;;;;;;;;;5056367;28;20184;-73
2023/08/27 12:39:19;;;;;;;1.63;1.03;;;;;;;;;;5056795;28;20184;-73
2023/08/27 12:42:25;;;;;;;2.93;1.47;;;;;;;;;;5055999;28;20211;-73
2023/08/27 12:45:29;;;;;;;1.40;1.10;;;;;;;;;;5055843;28;20176;-73
2023/08/27 12:48:34;;;;;;;1.27;1.17;;;;;;;;;;5055519;28;20208;-72
2023/08/27 12:51:39;;;;;;;1.40;1.10;;;;;;;;;;5056590;28;20539;-73
2023/08/27 12:54:43;;;;;;;2.70;1.10;;;;;;;;;;5055397;28;20195;-73
2023/08/27 12:57:47;;;;;;;1.93;1.40;;;;;;;;;;5056233;28;20192;-73
2023/08/27 13:00:51;;;;;;;2.37;1.27;;;;;;;;;;5056359;28;20176;-72
2023/08/27 13:03:56;;;;;;;1.10;1.00;;;;;;;;;;5055989;28;20176;-73
2023/08/27 13:07:01;;;;;;;1.63;1.50;;;;;;;;;;5056213;28;20544;-73
2023/08/27 13:10:05;;;;;;;1.70;1.27;;;;;;;;;;5056199;28;20638;-73
2023/08/27 13:13:09;;;;;;;1.47;1.20;;;;;;;;;;5056370;28;20224;-72
2023/08/27 13:16:14;;;;;;;2.03;1.13;;;;;;;;;;5055009;28;20563;-72
2023/08/27 13:19:18;;;;;;;3.00;1.30;;;;;;;;;;5055025;28;20192;-72
2023/08/27 13:22:22;;;;;;;1.83;1.23;;;;;;;;;;5054395;28;20230;-72
2023/08/27 13:25:26;;;;;;;2.70;1.20;;;;;;;;;;5054846;28;20172;-73
2023/08/27 13:28:30;;;;;;;4.00;1.47;;;;;;;;;;5054848;28;20556;-73
2023/08/27 13:31:34;;;;;;;2.47;1.57;;;;;;;;;;5054663;28;20527;-73
2023/08/27 13:34:38;;;;;;;1.33;1.10;;;;;;;;;;5056186;28;20520;-73
2023/08/27 13:37:42;;;;;;;7.20;1.77;;;;;;;;;;5055739;28;20196;-74
2023/08/27 13:40:47;;;;;;;4.20;1.60;;;;;;;;;;5054854;28;20191;-73
2023/08/27 13:43:51;;;;;;;2.23;1.40;;;;;;;;;;5056045;28;20176;-73
2023/08/27 13:46:56;;;;;;;1.50;1.40;;;;;;;;;;5043349;28;20239;-73
2023/08/27 13:50:00;;;;;;;1.87;1.30;;;;;;;;;;5055286;28;20199;-73
2023/08/27 13:53:04;;;;;;;1.50;1.10;;;;;;;;;;5055242;28;20211;-73
2023/08/27 13:56:09;;;;;;;1.40;1.20;;;;;;;;;;5055180;28;20203;-73
2023/08/27 13:59:13;;;;;;;1.80;1.30;;;;;;;;;;5042925;28;20184;-73
2023/08/27 14:02:17;;;;;;;2.13;1.40;;;;;;;;;;5055139;28;20208;-73
2023/08/27 14:05:21;;;;;;;1.97;1.43;;;;;;;;;;5054365;28;20196;-73
2023/08/27 14:08:26;;;;;;;1.80;1.50;;;;;;;;;;5054753;28;20219;-73
2023/08/27 14:11:31;;;;;;;3.30;1.40;;;;;;;;;;5054762;28;20176;-73
2023/08/27 14:14:35;;;;;;;1.90;1.20;;;;;;;;;;5055094;28;20635;-73
2023/08/27 14:17:40;;;;;;;1.67;1.07;;;;;;;;;;5054761;28;20180;-72
2023/08/27 14:20:44;;;;;;;2.27;1.40;;;;;;;;;;5055267;28;20172;-72
2023/08/27 14:23:50;;;;;;;3.40;1.33;;;;;;;;;;5053829;28;20207;-72
2023/08/27 14:26:54;;;;;;;1.83;1.40;;;;;;;;;;5054448;28;20192;-72
2023/08/27 14:29:59;;;;;;;1.73;1.30;;;;;;;;;;5053676;28;20199;-73
2023/08/27 14:33:03;;;;;;;2.13;1.37;;;;;;;;;;5054374;28;20223;-72
2023/08/27 14:36:07;;;;;;;1.83;1.30;;;;;;;;;;5054427;28;20181;-72
2023/08/27 14:39:11;;;;;;;1.90;1.47;;;;;;;;;;5055020;28;20168;-73
2023/08/27 14:42:16;;;;;;;2.10;1.50;;;;;;;;;;5054215;28;20211;-72
2023/08/27 14:45:20;;;;;;;1.40;1.03;;;;;;;;;;5042568;28;20176;-73
2023/08/27 14:48:24;;;;;;;2.17;1.40;;;;;;;;;;5053592;28;20548;-73
2023/08/27 14:51:28;;;;;;;2.43;1.27;;;;;;;;;;5054332;28;20180;-73
2023/08/27 14:54:32;;;;;;;1.70;1.30;;;;;;;;;;5053813;28;20192;-72
2023/08/27 14:57:37;;;;;;;3.10;1.40;;;;;;;;;;5054061;28;20626;-73
2023/08/27 15:00:41;;;;;;;2.47;1.20;;;;;;;;;;5054274;28;20180;-73
2023/08/27 15:03:46;;;;;;;1.70;1.37;;;;;;;;;;5053843;28;20212;-73
2023/08/27 15:06:50;;;;;;;1.40;1.10;;;;;;;;;;5054319;28;20184;-72
2023/08/27 15:09:54;;;;;;;1.70;1.30;;;;;;;;;;5053220;28;20520;-73
2023/08/27 15:12:58;;;;;;;1.87;1.10;;;;;;;;;;5052836;28;20208;-73
2023/08/27 15:16:02;;;;;;;1.60;1.10;;;;;;;;;;5053036;28;20196;-74
2023/08/27 15:19:06;;;;;;;2.93;1.43;;;;;;;;;;5053881;28;20188;-72
2023/08/27 15:22:10;;;;;;;3.07;1.00;;;;;;;;;;5054078;28;20219;-72
2023/08/27 15:25:16;;;;;;;1.50;0.90;;;;;;;;;;5053475;28;20180;-72
2023/08/27 15:28:20;;;;;;;2.47;1.13;;;;;;;;;;5053459;28;20204;-72
2023/08/27 15:31:24;;;;;;;1.93;1.20;;;;;;;;;;5053247;28;20176;-73
2023/08/27 15:34:30;;;;;;;2.07;1.20;;;;;;;;;;5041457;28;20180;-72
2023/08/27 15:37:34;;;;;;;1.10;0.90;;;;;;;;;;5053264;28;20180;-72
2023/08/27 15:40:40;;;;;;;1.57;1.20;;;;;;;;;;5052440;28;20180;-72
2023/08/27 15:43:44;;;;;;;1.47;1.00;;;;;;;;;;5053376;28;20690;-72
2023/08/27 15:46:48;;;;;;;1.77;1.30;;;;;;;;;;5051870;28;20172;-73
2023/08/27 15:49:52;;;;;;;2.37;1.40;;;;;;;;;;5053110;28;20172;-72
2023/08/27 15:52:56;;;;;;;1.30;1.00;;;;;;;;;;5052301;28;20207;-72
2023/08/27 15:56:01;;;;;;;1.50;1.00;;;;;;;;;;5053025;28;20200;-72
2023/08/27 15:59:05;;;;;;;2.33;1.20;;;;;;;;;;5053213;28;20176;-72
2023/08/27 16:02:09;;;;;;;1.60;1.00;;;;;;;;;;5052716;28;20207;-73
2023/08/27 16:05:13;;;;;;;4.50;1.20;;;;;;;;;;5052308;28;20176;-73
2023/08/27 16:08:17;;;;;;;2.00;1.10;;;;;;;;;;5052048;28;20208;-72
2023/08/27 16:11:21;;;;;;;2.07;1.27;;;;;;;;;;5052003;28;20528;-72
2023/08/27 16:14:26;;;;;;;2.77;1.00;;;;;;;;;;5053451;28;20508;-72
2023/08/27 16:17:29;;;;;;;2.10;1.10;;;;;;;;;;5052400;28;20176;-72
2023/08/27 16:20:33;;;;;;;2.40;0.90;;;;;;;;;;5052857;28;20184;-72
2023/08/27 16:23:38;;;;;;;1.67;0.90;;;;;;;;;;5052955;28;20219;-72
2023/08/27 16:26:42;;;;;;;1.20;0.87;;;;;;;;;;5052753;28;20524;-73
2023/08/27 16:29:46;;;;;;;1.87;1.07;;;;;;;;;;5052070;28;20196;-72
2023/08/27 16:32:50;;;;;;;1.00;0.70;;;;;;;;;;5052620;28;20689;-73
2023/08/27 16:35:54;;;;;;;1.37;0.70;;;;;;;;;;5052635;28;20180;-72
2023/08/27 16:38:58;;;;;;;1.23;0.80;;;;;;;;;;5052683;28;20176;-72
2023/08/27 16:42:03;;;;;;;0.90;0.80;;;;;;;;;;5052550;28;20552;-73
2023/08/27 16:45:09;;;;;;;1.83;0.83;;;;;;;;;;5053235;28;20516;-72
2023/08/27 16:48:13;;;;;;;1.97;0.90;;;;;;;;;;5040570;28;20208;-72
2023/08/27 16:51:17;;;;;;;1.17;0.70;;;;;;;;;;5051773;28;20180;-72
2023/08/27 16:54:22;;;;;;;1.43;0.77;;;;;;;;;;5040798;28;20180;-72
2023/08/27 16:57:26;;;;;;;0.90;0.60;;;;;;;;;;5083345;22;20230;-71
2023/08/27 17:00:30;;;;;;;1.40;0.77;;;;;;;;;;5084119;28;20178;-73
2023/08/27 17:03:34;;;;;;;2.13;0.83;;;;;;;;;;5083928;28;20553;-71
2023/08/27 17:06:38;;;;;;;0.87;0.70;;;;;;;;;;5096420;28;20194;-71
2023/08/27 17:09:43;;;;;;;2.00;0.83;;;;;;;;;;5096371;28;20668;-71
2023/08/27 17:12:48;;;;;;;2.23;1.00;;;;;;;;;;5096510;28;20214;-71
2023/08/27 17:15:52;;;;;;;1.33;1.00;;;;;;;;;;5083880;28;20183;-71
2023/08/27 17:18:56;;;;;;;1.67;1.00;;;;;;;;;;5096259;28;20170;-71
2023/08/27 17:22:00;;;;;;;6.83;1.10;;;;;;;;;;5083718;28;20214;-71
2023/08/27 17:25:05;;;;;;;2.10;1.07;;;;;;;;;;5096244;28;20179;-71
2023/08/27 17:28:10;;;;;;;1.00;0.90;;;;;;;;;;5096034;28;20198;-72
2023/08/27 17:31:14;;;;;;;1.63;1.07;;;;;;;;;;5095976;28;20641;-72
2023/08/27 17:34:18;;;;;;;2.60;1.13;;;;;;;;;;5095973;28;20174;-72
2023/08/27 17:37:22;;;;;;;2.37;1.00;;;;;;;;;;5096120;28;20179;-73
2023/08/27 17:40:26;;;;;;;1.43;0.90;;;;;;;;;;5095825;28;20179;-73
2023/08/27 17:43:30;;;;;;;1.10;0.80;;;;;;;;;;5083279;28;20214;-72
2023/08/27 17:46:34;;;;;;;1.17;0.90;;;;;;;;;;5083551;28;20182;-72
2023/08/27 17:49:40;;;;;;;2.27;0.87;;;;;;;;;;5083396;28;20207;-72
2023/08/27 17:52:44;;;;;;;1.37;1.00;;;;;;;;;;5083329;28;20210;-72
2023/08/27 17:55:50;;;;;;;1.07;0.70;;;;;;;;;;5095591;28;20637;-73
2023/08/27 17:58:55;;;;;;;2.73;1.00;;;;;;;;;;5083271;28;20171;-72
2023/08/27 18:01:59;;;;;;;0.87;0.70;;;;;;;;;;5082761;28;20700;-72
2023/08/27 18:05:03;;;;;;;2.13;0.87;;;;;;;;;;5095453;28;20664;-72
2023/08/27 18:08:07;;;;;;;1.23;0.80;;;;;;;;;;5082515;28;20195;-72
2023/08/27 18:11:12;;;;;;;0.90;0.80;;;;;;;;;;5082986;28;20183;-72
2023/08/27 18:14:16;;;;;;;1.33;0.70;;;;;;;;;;5095122;28;20198;-72
2023/08/27 18:17:20;;;;;;;1.10;0.83;;;;;;;;;;5094990;28;20178;-71
2023/08/27 18:20:24;;;;;;;1.00;0.73;;;;;;;;;;5082669;28;20170;-72
2023/08/27 18:23:28;;;;;;;3.23;0.90;;;;;;;;;;5094946;28;20218;-72
2023/08/27 18:26:33;;;;;;;2.90;0.90;;;;;;;;;;5094936;28;20175;-72
2023/08/27 18:29:37;;;;;;;1.50;0.87;;;;;;;;;;5095093;28;20673;-72